createdAt,value
2023-06-19T00:03:49.289Z,6.78
2023-06-19T00:08:45.834Z,7.20
2023-06-19T00:13:42.102Z,6.63
2023-06-19T00:18:40.981Z,7.35
2023-06-19T00:23:37.708Z,7.10
2023-06-19T00:28:35.124Z,7.57
2023-06-19T00:33:31.395Z,7.80
2023-06-19T00:38:27.757Z,7.22
2023-06-19T00:43:24.017Z,7.22
2023-06-19T00:48:20.386Z,7.95
2023-06-19T00:53:16.789Z,7.57
2023-06-19T00:58:13.139Z,7.43
2023-06-19T01:08:47.269Z,6.85
2023-06-19T01:13:48.708Z,7.85
2023-06-19T01:18:45.543Z,7.78
2023-06-19T01:23:41.841Z,7.20
2023-06-19T01:28:42.848Z,7.28
2023-06-19T01:33:39.350Z,7.50
2023-06-19T01:38:36.249Z,7.70
2023-06-19T01:43:32.773Z,8.15
2023-06-19T01:48:29.057Z,8.32
2023-06-19T01:53:25.412Z,7.63
2023-06-19T01:58:21.728Z,7.82
2023-06-19T02:03:18.126Z,8.10
2023-06-19T02:08:14.419Z,7.50
2023-06-19T02:13:10.705Z,8.02
2023-06-19T02:18:07.070Z,8.02
2023-06-19T02:23:03.351Z,7.90
2023-06-19T02:27:59.791Z,8.55
2023-06-19T02:32:56.112Z,7.88
2023-06-19T02:37:52.474Z,8.88
2023-06-19T02:42:48.768Z,8.38
2023-06-19T02:47:45.970Z,8.00
2023-06-19T02:52:45.071Z,8.50
2023-06-19T02:57:41.446Z,8.15
2023-06-19T03:02:37.852Z,8.40
2023-06-19T03:07:37.874Z,8.63
2023-06-19T03:12:34.174Z,8.88
2023-06-19T03:17:30.612Z,8.00
2023-06-19T03:22:27.025Z,8.90
2023-06-19T03:27:23.627Z,8.50
2023-06-19T03:32:21.164Z,9.35
2023-06-19T03:37:17.627Z,9.02
2023-06-19T03:42:14.163Z,8.77
2023-06-19T03:47:10.572Z,8.48
2023-06-19T03:52:07.006Z,9.13
2023-06-19T03:57:03.407Z,8.80
2023-06-19T04:02:00.446Z,9.00
2023-06-19T04:06:56.835Z,9.30
2023-06-19T04:11:53.184Z,9.60
2023-06-19T04:16:49.597Z,8.98
2023-06-19T04:21:46.277Z,9.48
2023-06-19T04:26:43.230Z,8.63
2023-06-19T04:31:42.889Z,9.60
2023-06-19T04:36:39.501Z,10.07
2023-06-19T04:41:39.401Z,10.55
2023-06-19T04:46:38.847Z,10.77
2023-06-19T04:51:35.401Z,11.73
2023-06-19T04:56:31.850Z,10.20
2023-06-19T05:01:34.296Z,10.77
2023-06-19T05:06:30.589Z,10.65
2023-06-19T05:11:27.338Z,10.65
2023-06-19T05:16:24.247Z,11.07
2023-06-19T05:21:20.730Z,12.18
2023-06-19T05:26:21.039Z,10.98
2023-06-19T05:31:17.330Z,10.60
2023-06-19T05:36:13.605Z,10.57
2023-06-19T05:41:10.051Z,10.95
2023-06-19T05:46:06.312Z,11.30
2023-06-19T05:51:02.618Z,11.20
2023-06-19T05:55:59.534Z,11.45
2023-06-19T06:00:58.589Z,11.70
2023-06-19T06:05:54.937Z,10.98
2023-06-19T06:10:51.253Z,11.52
2023-06-19T06:15:47.530Z,12.13
2023-06-19T06:20:43.828Z,11.32
2023-06-19T06:25:40.227Z,11.73
2023-06-19T06:30:36.521Z,11.20
2023-06-19T06:35:32.868Z,12.13
2023-06-19T06:40:29.152Z,11.98
2023-06-19T06:45:27.802Z,12.00
2023-06-19T06:50:24.632Z,12.68
2023-06-19T06:55:21.563Z,13.15
2023-06-19T07:00:19.225Z,14.63
2023-06-19T07:05:15.469Z,13.93
2023-06-19T07:10:11.789Z,14.18
2023-06-19T07:15:08.522Z,14.10
2023-06-19T07:20:05.457Z,12.98
2023-06-19T07:25:01.823Z,12.70
2023-06-19T07:29:58.092Z,12.98
2023-06-19T07:34:57.058Z,13.27
2023-06-19T07:39:53.533Z,12.95
2023-06-19T07:44:50.170Z,12.90
2023-06-19T07:49:48.497Z,12.88
2023-06-19T07:54:52.179Z,12.80
2023-06-19T07:59:49.375Z,12.13
2023-06-19T08:04:46.540Z,13.02
2023-06-19T08:09:42.937Z,12.05
2023-06-19T08:14:39.528Z,12.02
2023-06-19T08:19:35.922Z,11.98
2023-06-19T08:24:32.281Z,13.55
2023-06-19T08:29:28.742Z,12.50
2023-06-19T08:34:25.111Z,12.13
2023-06-19T08:39:23.173Z,13.10
2023-06-19T08:44:19.704Z,11.68
2023-06-19T08:49:16.451Z,12.02
2023-06-19T08:54:14.422Z,11.65
2023-06-19T08:59:11.636Z,12.27
2023-06-19T09:04:12.040Z,11.93
2023-06-19T09:09:13.361Z,11.35
2023-06-19T09:14:12.685Z,12.35
2023-06-19T09:19:09.033Z,12.25
2023-06-19T09:24:06.258Z,12.35
2023-06-19T09:29:19.523Z,11.70
2023-06-19T09:34:17.564Z,12.73
2023-06-19T09:39:14.393Z,12.25
2023-06-19T09:44:13.573Z,12.23
2023-06-19T09:49:10.995Z,12.68
2023-06-19T09:54:08.149Z,11.98
2023-06-19T09:59:05.601Z,12.15
2023-06-19T10:04:02.988Z,12.32
2023-06-19T10:09:07.435Z,11.85
2023-06-19T10:14:08.225Z,11.98
2023-06-19T10:19:12.394Z,13.00
2023-06-19T10:24:14.816Z,12.70
2023-06-19T10:29:17.819Z,11.85
2023-06-19T10:34:14.158Z,12.35
2023-06-19T10:39:11.227Z,12.30
2023-06-19T10:44:11.808Z,12.02
2023-06-19T10:49:10.461Z,12.67
2023-06-19T10:54:07.649Z,12.65
2023-06-19T10:59:09.773Z,12.40
2023-06-19T11:04:07.188Z,13.50
2023-06-19T11:09:05.440Z,12.45
2023-06-19T11:14:05.058Z,12.55
2023-06-19T11:19:02.130Z,12.95
2023-06-19T11:23:58.719Z,12.13
2023-06-19T11:28:55.363Z,13.20
2023-06-19T11:34:00.785Z,13.52
2023-06-19T11:38:57.289Z,12.18
2023-06-19T11:43:59.322Z,11.98
2023-06-19T11:49:07.087Z,12.25
2023-06-19T11:54:06.354Z,12.80
2023-06-19T11:59:04.191Z,12.13
2023-06-19T12:04:01.118Z,11.32
2023-06-19T12:08:57.535Z,10.77
2023-06-19T12:13:58.672Z,9.93
2023-06-19T12:18:54.987Z,10.95
2023-06-19T12:23:51.304Z,10.32
2023-06-19T12:28:47.596Z,11.00
2023-06-19T12:33:44.801Z,10.18
2023-06-19T12:38:41.426Z,10.25
2023-06-19T12:43:37.771Z,9.82
2023-06-19T12:48:34.119Z,9.63
2023-06-19T12:53:30.965Z,10.68
2023-06-19T12:58:27.295Z,9.40
2023-06-19T13:03:23.690Z,10.07
2023-06-19T13:08:20.155Z,10.07
2023-06-19T13:13:16.467Z,9.40
2023-06-19T13:18:12.921Z,9.70
2023-06-19T13:23:09.418Z,10.23
2023-06-19T13:28:05.850Z,9.40
2023-06-19T13:33:04.937Z,8.82
2023-06-19T13:38:01.822Z,9.23
2023-06-19T13:42:58.413Z,9.00
2023-06-19T13:47:54.767Z,9.32
2023-06-19T13:52:51.120Z,9.52
2023-06-19T13:57:47.484Z,8.90
2023-06-19T14:02:43.831Z,9.30
2023-06-19T14:07:41.321Z,8.88
2023-06-19T14:12:37.616Z,8.98
2023-06-19T14:17:34.232Z,9.18
2023-06-19T14:22:30.545Z,8.75
2023-06-19T14:27:27.218Z,9.07
2023-06-19T14:32:24.829Z,8.85
2023-06-19T14:37:22.065Z,8.63
2023-06-19T14:42:18.456Z,9.07
2023-06-19T14:47:14.838Z,8.90
2023-06-19T14:52:11.082Z,8.68
2023-06-19T14:57:07.519Z,9.43
2023-06-19T15:02:04.079Z,9.02
2023-06-19T15:07:01.022Z,9.15
2023-06-19T15:11:57.324Z,9.25
2023-06-19T15:16:53.633Z,9.10
2023-06-19T15:21:50.046Z,9.20
2023-06-19T15:26:46.397Z,9.60
2023-06-19T15:31:42.794Z,8.90
2023-06-19T15:36:39.073Z,10.07
2023-06-19T15:41:35.378Z,9.60
2023-06-19T15:46:31.794Z,9.15
2023-06-19T15:51:28.157Z,9.82
2023-06-19T15:56:24.514Z,10.02
2023-06-19T16:01:20.778Z,8.77
2023-06-19T16:06:17.192Z,9.35
2023-06-19T16:11:13.524Z,10.30
2023-06-19T16:16:10.015Z,9.32
2023-06-19T16:21:06.437Z,9.98
2023-06-19T16:26:03.801Z,9.25
2023-06-19T16:31:00.148Z,9.15
2023-06-19T16:35:56.547Z,8.68
2023-06-19T16:40:52.867Z,9.77
2023-06-19T16:45:49.269Z,8.43
2023-06-19T16:50:45.676Z,8.35
2023-06-19T16:55:42.036Z,8.45
2023-06-19T17:00:38.275Z,8.60
2023-06-19T17:05:34.578Z,8.27
2023-06-19T17:10:30.819Z,7.78
2023-06-19T17:15:31.350Z,7.97
2023-06-19T17:20:28.122Z,8.30
2023-06-19T17:25:24.873Z,8.88
2023-06-19T17:30:21.273Z,9.00
2023-06-19T17:35:17.944Z,8.13
2023-06-19T17:40:14.429Z,8.77
2023-06-19T17:45:14.792Z,7.85
2023-06-19T17:50:12.993Z,7.78
2023-06-19T17:55:10.043Z,8.43
2023-06-19T18:00:06.904Z,8.52
2023-06-19T18:05:03.666Z,9.25
2023-06-19T18:10:00.159Z,10.20
2023-06-19T18:14:56.627Z,15.10
2023-06-19T18:19:53.018Z,15.75
2023-06-19T18:24:49.417Z,11.43
2023-06-19T18:29:45.820Z,9.80
2023-06-19T18:34:42.235Z,9.38
2023-06-19T18:39:38.825Z,9.25
2023-06-19T18:44:35.099Z,9.18
2023-06-19T18:49:32.446Z,9.68
2023-06-19T18:54:29.111Z,9.98
2023-06-19T18:59:25.385Z,9.05
2023-06-19T19:04:21.658Z,9.65
2023-06-19T19:09:17.931Z,9.38
2023-06-19T19:14:14.505Z,9.57
2023-06-19T19:19:10.751Z,9.05
2023-06-19T19:24:07.060Z,9.93
2023-06-19T19:29:03.564Z,9.07
2023-06-19T19:33:59.952Z,9.15
2023-06-19T19:38:56.336Z,8.13
2023-06-19T19:43:52.815Z,8.93
2023-06-19T19:48:49.128Z,8.80
2023-06-19T19:53:45.405Z,9.45
2023-06-19T19:58:41.700Z,8.85
2023-06-19T20:03:38.239Z,9.00
2023-06-19T20:08:34.625Z,9.40
2023-06-19T20:13:33.041Z,9.10
2023-06-19T20:18:29.525Z,9.80
2023-06-19T20:23:25.814Z,9.45
2023-06-19T20:28:22.121Z,8.80
2023-06-19T20:33:18.420Z,9.27
2023-06-19T20:38:14.991Z,10.52
2023-06-19T20:43:11.295Z,11.23
2023-06-19T20:48:07.961Z,10.50
2023-06-19T20:53:04.409Z,10.85
2023-06-19T20:58:05.468Z,11.30
2023-06-19T21:03:04.488Z,10.07
2023-06-19T21:08:00.904Z,10.05
2023-06-19T21:13:04.450Z,10.77
2023-06-19T21:18:07.920Z,10.52
2023-06-19T21:23:04.315Z,10.05
2023-06-19T21:28:00.947Z,10.40
2023-06-19T21:32:57.249Z,9.80
2023-06-19T21:37:53.496Z,10.48
2023-06-19T21:42:49.928Z,10.60
2023-06-19T21:47:48.160Z,11.05
2023-06-19T21:52:47.273Z,11.73
2023-06-19T22:02:43.617Z,9.80
2023-06-19T22:07:40.048Z,10.27
2023-06-19T22:12:36.713Z,9.98
2023-06-19T22:17:33.017Z,10.10
2023-06-19T22:22:29.678Z,9.45
2023-06-19T22:27:25.948Z,9.63
2023-06-19T22:32:22.867Z,9.55
2023-06-19T22:37:19.136Z,10.38
2023-06-19T22:42:15.591Z,10.07
2023-06-19T22:47:13.997Z,9.63
2023-06-19T22:52:10.330Z,9.02
2023-06-19T22:57:06.614Z,10.45
2023-06-19T23:02:02.886Z,9.90
2023-06-19T23:07:02.429Z,10.50
2023-06-19T23:11:58.947Z,9.82
2023-06-19T23:16:55.319Z,10.40
2023-06-19T23:21:52.755Z,10.15
2023-06-19T23:26:49.992Z,10.93
2023-06-19T23:31:46.354Z,10.00
2023-06-19T23:36:42.594Z,10.45
2023-06-19T23:41:38.843Z,11.32
2023-06-19T23:46:35.289Z,11.55
2023-06-19T23:51:31.624Z,11.85
2023-06-19T23:56:27.861Z,12.77
